This is the latest recevied weather packets stored in our database for station/object OE-3055. If no packets are shown the sender has not sent any weather packets the latest 10 day(s).
| Time | Temp. | Humidity | Pressure | Rain* | Wind** | Luminosity | Snow |
|---|---|---|---|---|---|---|---|
| 1787758869 | 25° C | 55% | 1015.9 hPa | - | - | - | - |
| 1787757069 | 24.44° C | 55% | 1017.1 hPa | - | - | - | - |
| 1787755269 | 23.89° C | 61% | 1017.2 hPa | - | - | - | - |
| 1787753469 | 23.89° C | 62% | 1017.3 hPa | - | - | - | - |
| 1787751669 | 23.33° C | 63% | 1017.4 hPa | - | - | - | - |
| 1787749869 | 23.33° C | 65% | 1017.5 hPa | - | - | - | - |
| 1787748069 | 21.67° C | 71% | 1018 hPa | - | - | - | - |
| 1787746269 | 21.11° C | 73% | 1018.1 hPa | - | - | - | - |
| 1787744468 | 21.67° C | 74% | 1018 hPa | - | - | - | - |
| 1787742669 | 21.67° C | 76% | 1018 hPa | - | - | - | - |
| 1787740869 | 20.56° C | 78% | 1018.2 hPa | - | - | - | - |
| 1787739069 | 21.11° C | 77% | 1018.1 hPa | - | - | - | - |
| 1787737269 | 20.56° C | 75% | 1019.4 hPa | - | - | - | - |
| 1787735469 | 18.89° C | 80% | 1018.8 hPa | - | - | - | - |
| 1787733669 | 18.33° C | 81% | 1018.9 hPa | - | - | - | - |
| 1787731869 | 17.22° C | 82% | 1019.2 hPa | - | - | - | - |
| 1787730069 | 16.67° C | 85% | 1019.4 hPa | - | - | - | - |
| 1787728268 | 16.67° C | 84% | 1018.4 hPa | - | - | - | - |
| 1787726707 | 16.11° C | 84% | 1018.4 hPa | - | - | - | - |
| 1787724668 | 16.11° C | 84% | 1018.4 hPa | - | - | - | - |
| 1787722868 | 16.11° C | 85% | 1018.5 hPa | - | - | - | - |
| 1787721068 | 16.11° C | 85% | 1018.5 hPa | - | - | - | - |
| 1787719269 | 15.56° C | 86% | 1018.6 hPa | - | - | - | - |
| 1787717468 | 15.56° C | 85% | 1018.6 hPa | - | - | - | - |
| 1787713868 | 15.56° C | 88% | 1017.6 hPa | - | - | - | - |
* Rain since midnight (hover to see other rain measurements)
** Current wind speed in m/s (hover to see current wind gust speed)